sensor_id;sensor_type;location;lat;lon;timestamp;pressure;altitude;pressure_sealevel;temperature;humidity
26376;BME280;30544;42.196;24.336;2022-07-11T00:01:14;98922.22;;;20.24;54.74
26376;BME280;30544;42.196;24.336;2022-07-11T00:03:41;98934.28;;;20.38;54.61
26376;BME280;30544;42.196;24.336;2022-07-11T00:06:08;98925.44;;;20.31;54.81
26376;BME280;30544;42.196;24.336;2022-07-11T00:08:35;98924.91;;;20.43;54.46
26376;BME280;30544;42.196;24.336;2022-07-11T00:11:04;98907.69;;;20.08;55.04
26376;BME280;30544;42.196;24.336;2022-07-11T00:13:30;98940.41;;;20.40;55.13
26376;BME280;30544;42.196;24.336;2022-07-11T00:15:57;98931.66;;;20.20;55.30
26376;BME280;30544;42.196;24.336;2022-07-11T00:18:24;98936.19;;;20.29;55.07
26376;BME280;30544;42.196;24.336;2022-07-11T00:20:51;98927.16;;;20.19;54.70
26376;BME280;30544;42.196;24.336;2022-07-11T00:23:18;98927.03;;;20.24;54.79
26376;BME280;30544;42.196;24.336;2022-07-11T00:25:45;98939.41;;;20.36;54.20
26376;BME280;30544;42.196;24.336;2022-07-11T00:28:16;98938.97;;;20.43;53.60
26376;BME280;30544;42.196;24.336;2022-07-11T00:30:43;98937.41;;;20.37;53.99
26376;BME280;30544;42.196;24.336;2022-07-11T00:33:10;98930.63;;;20.38;53.85
26376;BME280;30544;42.196;24.336;2022-07-11T00:35:38;98943.78;;;20.29;54.65
26376;BME280;30544;42.196;24.336;2022-07-11T00:38:04;98947.44;;;20.29;54.97
26376;BME280;30544;42.196;24.336;2022-07-11T00:40:31;98942.41;;;20.18;55.66
26376;BME280;30544;42.196;24.336;2022-07-11T00:42:58;98952.91;;;20.12;55.98
26376;BME280;30544;42.196;24.336;2022-07-11T00:45:27;98949.53;;;20.01;55.82
26376;BME280;30544;42.196;24.336;2022-07-11T00:47:54;98954.38;;;20.09;55.98
26376;BME280;30544;42.196;24.336;2022-07-11T00:50:21;98945.56;;;20.02;55.62
26376;BME280;30544;42.196;24.336;2022-07-11T00:52:49;98948.88;;;20.04;56.05
26376;BME280;30544;42.196;24.336;2022-07-11T00:55:18;98961.28;;;20.03;55.73
26376;BME280;30544;42.196;24.336;2022-07-11T00:57:45;98966.72;;;20.00;55.57
26376;BME280;30544;42.196;24.336;2022-07-11T01:00:12;98961.09;;;20.00;55.65
26376;BME280;30544;42.196;24.336;2022-07-11T01:02:40;98961.38;;;19.98;56.27
26376;BME280;30544;42.196;24.336;2022-07-11T01:05:08;98961.38;;;19.98;56.38
26376;BME280;30544;42.196;24.336;2022-07-11T01:07:34;98950.88;;;19.90;56.21
26376;BME280;30544;42.196;24.336;2022-07-11T01:10:02;98959.88;;;19.78;56.49
26376;BME280;30544;42.196;24.336;2022-07-11T01:12:29;98966.56;;;19.69;56.86
26376;BME280;30544;42.196;24.336;2022-07-11T01:14:56;98958.94;;;19.83;56.02
26376;BME280;30544;42.196;24.336;2022-07-11T01:17:24;98956.66;;;19.85;56.41
26376;BME280;30544;42.196;24.336;2022-07-11T01:19:52;98956.72;;;19.80;56.52
26376;BME280;30544;42.196;24.336;2022-07-11T01:22:23;98955.50;;;19.86;56.82
26376;BME280;30544;42.196;24.336;2022-07-11T01:24:57;98957.88;;;19.93;56.57
26376;BME280;30544;42.196;24.336;2022-07-11T01:27:24;98961.09;;;20.00;56.30
26376;BME280;30544;42.196;24.336;2022-07-11T01:29:51;98953.13;;;20.16;55.81
26376;BME280;30544;42.196;24.336;2022-07-11T01:32:18;98948.44;;;20.11;56.47
26376;BME280;30544;42.196;24.336;2022-07-11T01:34:45;98958.44;;;20.17;55.82
26376;BME280;30544;42.196;24.336;2022-07-11T01:37:12;98944.47;;;20.12;55.36
26376;BME280;30544;42.196;24.336;2022-07-11T01:39:38;98951.25;;;20.11;56.21
26376;BME280;30544;42.196;24.336;2022-07-11T01:42:07;98952.59;;;20.13;57.08
26376;BME280;30544;42.196;24.336;2022-07-11T01:44:33;98945.78;;;19.92;56.74
26376;BME280;30544;42.196;24.336;2022-07-11T01:47:00;98961.50;;;19.93;57.40
26376;BME280;30544;42.196;24.336;2022-07-11T01:49:27;98964.06;;;19.67;57.86
26376;BME280;30544;42.196;24.336;2022-07-11T01:51:56;98980.50;;;19.74;58.08
26376;BME280;30544;42.196;24.336;2022-07-11T01:54:23;98971.66;;;19.67;58.03
26376;BME280;30544;42.196;24.336;2022-07-11T01:56:49;98976.72;;;19.23;59.98
26376;BME280;30544;42.196;24.336;2022-07-11T01:59:18;98977.88;;;19.36;59.46
26376;BME280;30544;42.196;24.336;2022-07-11T02:01:45;98968.06;;;19.20;59.37
26376;BME280;30544;42.196;24.336;2022-07-11T02:04:12;98965.28;;;19.34;59.48
26376;BME280;30544;42.196;24.336;2022-07-11T02:06:38;98963.81;;;19.36;59.16
26376;BME280;30544;42.196;24.336;2022-07-11T02:09:05;98979.34;;;19.34;59.60
26376;BME280;30544;42.196;24.336;2022-07-11T02:11:32;98977.03;;;19.22;59.90
26376;BME280;30544;42.196;24.336;2022-07-11T02:13:59;98977.75;;;19.28;59.75
26376;BME280;30544;42.196;24.336;2022-07-11T02:16:29;98981.28;;;19.19;60.07
26376;BME280;30544;42.196;24.336;2022-07-11T02:18:56;98974.53;;;19.20;59.94
26376;BME280;30544;42.196;24.336;2022-07-11T02:21:22;98973.53;;;18.98;60.97
26376;BME280;30544;42.196;24.336;2022-07-11T02:23:50;98969.03;;;18.83;60.93
26376;BME280;30544;42.196;24.336;2022-07-11T02:26:17;98985.81;;;18.88;60.28
26376;BME280;30544;42.196;24.336;2022-07-11T02:28:44;98988.66;;;18.69;61.08
26376;BME280;30544;42.196;24.336;2022-07-11T02:31:11;98989.19;;;18.71;60.78
26376;BME280;30544;42.196;24.336;2022-07-11T02:33:39;98981.44;;;18.63;61.34
26376;BME280;30544;42.196;24.336;2022-07-11T02:36:06;98981.81;;;18.75;61.16
26376;BME280;30544;42.196;24.336;2022-07-11T02:38:33;98993.50;;;18.63;61.58
26376;BME280;30544;42.196;24.336;2022-07-11T02:41:00;98992.00;;;18.71;60.71
26376;BME280;30544;42.196;24.336;2022-07-11T02:43:27;98991.38;;;18.74;60.95
26376;BME280;30544;42.196;24.336;2022-07-11T02:45:57;99000.84;;;18.78;60.68
26376;BME280;30544;42.196;24.336;2022-07-11T02:48:24;98993.75;;;18.67;61.47
26376;BME280;30544;42.196;24.336;2022-07-11T02:50:53;99002.41;;;18.71;61.30
26376;BME280;30544;42.196;24.336;2022-07-11T02:53:20;98995.09;;;18.70;61.60
26376;BME280;30544;42.196;24.336;2022-07-11T02:55:47;99002.22;;;18.62;61.02
26376;BME280;30544;42.196;24.336;2022-07-11T02:58:14;99000.53;;;18.80;60.40
26376;BME280;30544;42.196;24.336;2022-07-11T03:00:41;99001.81;;;18.87;60.29
26376;BME280;30544;42.196;24.336;2022-07-11T03:03:08;99011.81;;;18.93;59.63
26376;BME280;30544;42.196;24.336;2022-07-11T03:05:35;99005.00;;;19.00;59.35
26376;BME280;30544;42.196;24.336;2022-07-11T03:08:03;99017.06;;;19.14;59.19
26376;BME280;30544;42.196;24.336;2022-07-11T03:10:31;99019.88;;;19.14;59.19
26376;BME280;30544;42.196;24.336;2022-07-11T03:12:57;99016.44;;;19.03;59.00
26376;BME280;30544;42.196;24.336;2022-07-11T03:15:24;99020.22;;;19.26;58.81
26376;BME280;30544;42.196;24.336;2022-07-11T03:17:51;99026.06;;;19.16;58.61
26376;BME280;30544;42.196;24.336;2022-07-11T03:20:18;99030.00;;;19.15;58.43
26376;BME280;30544;42.196;24.336;2022-07-11T03:22:45;99030.91;;;19.10;58.19
26376;BME280;30544;42.196;24.336;2022-07-11T03:25:13;99032.19;;;19.18;57.49
26376;BME280;30544;42.196;24.336;2022-07-11T03:27:40;99017.53;;;19.21;57.11
26376;BME280;30544;42.196;24.336;2022-07-11T03:30:07;99040.06;;;19.48;55.73
26376;BME280;30544;42.196;24.336;2022-07-11T03:32:34;99036.94;;;19.50;55.28
26376;BME280;30544;42.196;24.336;2022-07-11T03:35:01;99029.16;;;19.74;55.01
26376;BME280;30544;42.196;24.336;2022-07-11T03:37:46;99047.59;;;19.80;54.10
26376;BME280;30544;42.196;24.336;2022-07-11T03:40:14;99050.22;;;20.04;53.03
26376;BME280;30544;42.196;24.336;2022-07-11T03:42:41;99048.63;;;19.98;53.53
26376;BME280;30544;42.196;24.336;2022-07-11T03:45:09;99046.44;;;20.09;53.05
26376;BME280;30544;42.196;24.336;2022-07-11T03:47:36;99055.22;;;20.07;53.61
26376;BME280;30544;42.196;24.336;2022-07-11T03:50:04;99061.50;;;20.68;52.76
26376;BME280;30544;42.196;24.336;2022-07-11T03:52:32;99053.09;;;20.99;50.96
26376;BME280;30544;42.196;24.336;2022-07-11T03:54:59;99059.81;;;21.56;49.62
26376;BME280;30544;42.196;24.336;2022-07-11T03:57:27;99057.56;;;21.45;49.69
26376;BME280;30544;42.196;24.336;2022-07-11T03:59:54;99059.06;;;21.73;48.84
26376;BME280;30544;42.196;24.336;2022-07-11T04:02:21;99048.25;;;22.15;48.04
26376;BME280;30544;42.196;24.336;2022-07-11T04:04:48;99058.47;;;21.54;49.73
26376;BME280;30544;42.196;24.336;2022-07-11T04:07:15;99055.44;;;21.81;48.75
26376;BME280;30544;42.196;24.336;2022-07-11T04:09:42;99063.44;;;21.97;48.56
26376;BME280;30544;42.196;24.336;2022-07-11T04:12:09;99057.75;;;22.19;48.33
26376;BME280;30544;42.196;24.336;2022-07-11T04:14:37;99063.94;;;21.90;48.80
26376;BME280;30544;42.196;24.336;2022-07-11T04:17:04;99071.06;;;21.87;49.62
26376;BME280;30544;42.196;24.336;2022-07-11T04:19:31;99064.41;;;22.23;48.67
26376;BME280;30544;42.196;24.336;2022-07-11T04:21:58;99057.47;;;22.38;48.46
26376;BME280;30544;42.196;24.336;2022-07-11T04:24:25;99048.72;;;22.91;47.48
26376;BME280;30544;42.196;24.336;2022-07-11T04:26:51;99060.03;;;23.08;46.57
26376;BME280;30544;42.196;24.336;2022-07-11T04:29:19;99064.69;;;22.87;46.97
26376;BME280;30544;42.196;24.336;2022-07-11T04:31:47;99072.78;;;22.80;47.63
26376;BME280;30544;42.196;24.336;2022-07-11T04:34:14;99072.13;;;23.26;47.33
26376;BME280;30544;42.196;24.336;2022-07-11T04:36:40;99073.16;;;23.22;46.84
26376;BME280;30544;42.196;24.336;2022-07-11T04:39:08;99079.16;;;23.03;47.24
26376;BME280;30544;42.196;24.336;2022-07-11T04:41:35;99072.97;;;23.27;46.60
26376;BME280;30544;42.196;24.336;2022-07-11T04:44:01;99076.16;;;23.08;46.41
26376;BME280;30544;42.196;24.336;2022-07-11T04:46:28;99070.09;;;23.53;45.97
26376;BME280;30544;42.196;24.336;2022-07-11T04:48:58;99077.09;;;23.55;45.83
26376;BME280;30544;42.196;24.336;2022-07-11T04:51:25;99083.75;;;23.33;46.67
26376;BME280;30544;42.196;24.336;2022-07-11T04:53:52;99078.38;;;23.75;45.45
26376;BME280;30544;42.196;24.336;2022-07-11T04:56:21;99088.03;;;23.74;45.74
26376;BME280;30544;42.196;24.336;2022-07-11T04:58:47;99089.69;;;23.75;46.02
26376;BME280;30544;42.196;24.336;2022-07-11T05:01:15;99086.75;;;23.46;46.09
26376;BME280;30544;42.196;24.336;2022-07-11T05:03:42;99077.59;;;24.04;44.86
26376;BME280;30544;42.196;24.336;2022-07-11T05:06:11;99071.13;;;23.39;45.29
26376;BME280;30544;42.196;24.336;2022-07-11T05:08:38;99083.84;;;23.89;44.87
26376;BME280;30544;42.196;24.336;2022-07-11T05:11:05;99078.91;;;23.51;44.70
26376;BME280;30544;42.196;24.336;2022-07-11T05:13:32;99081.72;;;23.51;44.85
26376;BME280;30544;42.196;24.336;2022-07-11T05:15:59;99085.41;;;23.34;44.53
26376;BME280;30544;42.196;24.336;2022-07-11T05:18:26;99084.63;;;23.25;45.08
26376;BME280;30544;42.196;24.336;2022-07-11T05:20:53;99083.50;;;23.90;44.11
26376;BME280;30544;42.196;24.336;2022-07-11T05:23:22;99084.81;;;23.84;43.33
26376;BME280;30544;42.196;24.336;2022-07-11T05:25:49;99069.63;;;24.36;43.06
26376;BME280;30544;42.196;24.336;2022-07-11T05:28:15;99072.25;;;24.70;42.85
26376;BME280;30544;42.196;24.336;2022-07-11T05:30:42;99073.53;;;23.76;42.71
26376;BME280;30544;42.196;24.336;2022-07-11T05:33:09;99083.66;;;24.23;41.68
26376;BME280;30544;42.196;24.336;2022-07-11T05:35:36;99080.69;;;24.49;41.98
26376;BME280;30544;42.196;24.336;2022-07-11T05:38:03;99061.44;;;24.64;40.70
26376;BME280;30544;42.196;24.336;2022-07-11T05:40:31;99078.50;;;24.25;42.04
26376;BME280;30544;42.196;24.336;2022-07-11T05:42:58;99084.31;;;23.91;41.70
26376;BME280;30544;42.196;24.336;2022-07-11T05:45:26;99074.69;;;24.21;42.35
26376;BME280;30544;42.196;24.336;2022-07-11T05:47:53;99084.50;;;24.24;40.84
26376;BME280;30544;42.196;24.336;2022-07-11T05:50:20;99094.63;;;24.34;40.97
26376;BME280;30544;42.196;24.336;2022-07-11T05:52:46;99091.53;;;25.18;40.12
26376;BME280;30544;42.196;24.336;2022-07-11T05:55:13;99094.56;;;24.72;40.33
26376;BME280;30544;42.196;24.336;2022-07-11T05:57:41;99105.41;;;25.20;39.86
26376;BME280;30544;42.196;24.336;2022-07-11T06:00:09;99100.47;;;25.62;39.25
26376;BME280;30544;42.196;24.336;2022-07-11T06:02:36;99112.94;;;25.70;38.87
26376;BME280;30544;42.196;24.336;2022-07-11T06:05:03;99110.09;;;25.49;39.52
26376;BME280;30544;42.196;24.336;2022-07-11T06:07:30;99104.44;;;25.82;38.93
26376;BME280;30544;42.196;24.336;2022-07-11T06:10:20;99128.44;;;25.72;38.36
26376;BME280;30544;42.196;24.336;2022-07-11T06:12:48;99109.03;;;24.79;39.48
26376;BME280;30544;42.196;24.336;2022-07-11T06:15:15;99128.88;;;24.79;39.44
26376;BME280;30544;42.196;24.336;2022-07-11T06:17:42;99138.50;;;24.86;39.16
26376;BME280;30544;42.196;24.336;2022-07-11T06:20:10;99132.25;;;24.72;39.65
26376;BME280;30544;42.196;24.336;2022-07-11T06:22:37;99129.31;;;24.60;40.20
26376;BME280;30544;42.196;24.336;2022-07-11T06:25:05;99121.41;;;24.95;39.71
26376;BME280;30544;42.196;24.336;2022-07-11T06:27:32;99130.13;;;25.73;38.41
26376;BME280;30544;42.196;24.336;2022-07-11T06:30:00;99138.91;;;24.76;39.14
26376;BME280;30544;42.196;24.336;2022-07-11T06:32:27;99122.09;;;24.71;38.40
26376;BME280;30544;42.196;24.336;2022-07-11T06:34:54;99124.72;;;24.76;39.59
26376;BME280;30544;42.196;24.336;2022-07-11T06:37:21;99125.81;;;24.63;39.54
26376;BME280;30544;42.196;24.336;2022-07-11T06:39:47;99124.34;;;25.28;38.05
26376;BME280;30544;42.196;24.336;2022-07-11T06:42:14;99123.84;;;25.26;39.19
26376;BME280;30544;42.196;24.336;2022-07-11T06:44:41;99122.78;;;25.85;37.62
26376;BME280;30544;42.196;24.336;2022-07-11T06:47:10;99132.75;;;25.58;38.27
26376;BME280;30544;42.196;24.336;2022-07-11T06:49:36;99122.09;;;25.88;39.05
26376;BME280;30544;42.196;24.336;2022-07-11T06:52:03;99127.53;;;25.27;39.59
26376;BME280;30544;42.196;24.336;2022-07-11T06:54:30;99135.34;;;25.09;38.83
26376;BME280;30544;42.196;24.336;2022-07-11T06:56:57;99118.88;;;25.02;39.13
26376;BME280;30544;42.196;24.336;2022-07-11T06:59:24;99131.16;;;25.48;38.45
26376;BME280;30544;42.196;24.336;2022-07-11T07:01:51;99128.13;;;24.90;39.56
26376;BME280;30544;42.196;24.336;2022-07-11T07:04:19;99119.88;;;26.05;37.58
26376;BME280;30544;42.196;24.336;2022-07-11T07:06:46;99120.47;;;25.66;38.44
26376;BME280;30544;42.196;24.336;2022-07-11T07:09:13;99106.28;;;26.23;38.02
26376;BME280;30544;42.196;24.336;2022-07-11T07:11:40;99107.75;;;25.51;38.35
26376;BME280;30544;42.196;24.336;2022-07-11T07:14:06;99110.16;;;26.19;37.44
26376;BME280;30544;42.196;24.336;2022-07-11T07:16:33;99119.69;;;25.77;36.98
26376;BME280;30544;42.196;24.336;2022-07-11T07:19:00;99110.13;;;25.82;37.59
26376;BME280;30544;42.196;24.336;2022-07-11T07:21:29;99103.44;;;26.11;36.60
26376;BME280;30544;42.196;24.336;2022-07-11T07:23:55;99104.66;;;25.44;37.30
26376;BME280;30544;42.196;24.336;2022-07-11T07:26:22;99115.34;;;25.92;36.88
26376;BME280;30544;42.196;24.336;2022-07-11T07:28:49;99115.72;;;25.58;37.90
26376;BME280;30544;42.196;24.336;2022-07-11T07:31:16;99108.81;;;25.46;38.45
26376;BME280;30544;42.196;24.336;2022-07-11T07:33:43;99105.19;;;26.16;37.40
26376;BME280;30544;42.196;24.336;2022-07-11T07:36:10;99115.00;;;25.28;37.40
26376;BME280;30544;42.196;24.336;2022-07-11T07:38:38;99107.66;;;25.60;36.94
26376;BME280;30544;42.196;24.336;2022-07-11T07:41:06;99099.59;;;25.83;35.91
26376;BME280;30544;42.196;24.336;2022-07-11T07:43:33;99106.16;;;26.07;34.35
26376;BME280;30544;42.196;24.336;2022-07-11T07:46:00;99117.03;;;26.18;34.25
26376;BME280;30544;42.196;24.336;2022-07-11T07:48:27;99113.75;;;26.52;33.38
26376;BME280;30544;42.196;24.336;2022-07-11T07:50:54;99127.75;;;25.75;33.95
26376;BME280;30544;42.196;24.336;2022-07-11T07:53:21;99104.66;;;26.59;32.96
26376;BME280;30544;42.196;24.336;2022-07-11T07:55:49;99117.25;;;26.00;32.78
26376;BME280;30544;42.196;24.336;2022-07-11T07:58:16;99106.56;;;26.55;32.16
26376;BME280;30544;42.196;24.336;2022-07-11T08:00:43;99108.03;;;26.16;32.83
26376;BME280;30544;42.196;24.336;2022-07-11T08:03:27;99098.88;;;26.95;31.05
26376;BME280;30544;42.196;24.336;2022-07-11T08:05:54;99106.00;;;27.02;31.00
26376;BME280;30544;42.196;24.336;2022-07-11T08:08:21;99105.13;;;26.73;30.46
26376;BME280;30544;42.196;24.336;2022-07-11T08:10:49;99109.56;;;25.89;31.82
26376;BME280;30544;42.196;24.336;2022-07-11T08:13:17;99084.00;;;26.13;30.37
26376;BME280;30544;42.196;24.336;2022-07-11T08:15:44;99082.72;;;26.59;29.00
26376;BME280;30544;42.196;24.336;2022-07-11T08:18:11;99088.00;;;25.75;29.66
26376;BME280;30544;42.196;24.336;2022-07-11T08:20:38;99095.91;;;25.70;30.85
26376;BME280;30544;42.196;24.336;2022-07-11T08:23:05;99085.72;;;27.03;31.38
26376;BME280;30544;42.196;24.336;2022-07-11T08:25:32;99095.16;;;26.06;30.47
26376;BME280;30544;42.196;24.336;2022-07-11T08:28:00;99082.25;;;26.21;29.55
26376;BME280;30544;42.196;24.336;2022-07-11T08:30:27;99084.63;;;26.43;30.18
26376;BME280;30544;42.196;24.336;2022-07-11T08:32:54;99067.78;;;26.75;30.77
26376;BME280;30544;42.196;24.336;2022-07-11T08:35:21;99069.13;;;27.61;29.76
26376;BME280;30544;42.196;24.336;2022-07-11T08:37:48;99056.78;;;27.85;29.58
26376;BME280;30544;42.196;24.336;2022-07-11T08:40:15;99054.47;;;26.91;30.99
26376;BME280;30544;42.196;24.336;2022-07-11T08:42:44;99076.69;;;26.24;31.17
26376;BME280;30544;42.196;24.336;2022-07-11T08:45:12;99052.19;;;26.56;30.41
26376;BME280;30544;42.196;24.336;2022-07-11T08:47:39;99062.22;;;25.93;31.04
26376;BME280;30544;42.196;24.336;2022-07-11T08:50:08;99052.41;;;26.51;30.86
26376;BME280;30544;42.196;24.336;2022-07-11T08:52:36;99067.44;;;25.91;29.90
26376;BME280;30544;42.196;24.336;2022-07-11T08:55:03;99040.78;;;26.32;29.79
26376;BME280;30544;42.196;24.336;2022-07-11T08:57:32;99057.63;;;26.49;29.94
26376;BME280;30544;42.196;24.336;2022-07-11T09:00:01;99059.03;;;26.06;29.79
26376;BME280;30544;42.196;24.336;2022-07-11T09:02:30;99048.22;;;26.73;28.94
26376;BME280;30544;42.196;24.336;2022-07-11T09:04:58;99057.72;;;26.28;28.41
26376;BME280;30544;42.196;24.336;2022-07-11T09:07:25;99063.31;;;26.37;28.25
26376;BME280;30544;42.196;24.336;2022-07-11T09:09:54;99026.59;;;26.07;28.51
26376;BME280;30544;42.196;24.336;2022-07-11T09:12:21;99074.00;;;26.40;28.40
26376;BME280;30544;42.196;24.336;2022-07-11T09:14:49;99057.84;;;26.32;28.60
26376;BME280;30544;42.196;24.336;2022-07-11T09:17:24;99062.66;;;26.80;27.66
26376;BME280;30544;42.196;24.336;2022-07-11T09:19:52;99061.63;;;26.60;27.41
26376;BME280;30544;42.196;24.336;2022-07-11T09:22:20;99072.03;;;26.81;27.00
26376;BME280;30544;42.196;24.336;2022-07-11T09:25:06;99062.16;;;26.90;26.58
26376;BME280;30544;42.196;24.336;2022-07-11T09:27:51;99057.59;;;26.61;26.13
26376;BME280;30544;42.196;24.336;2022-07-11T09:30:20;99064.94;;;26.62;26.98
26376;BME280;30544;42.196;24.336;2022-07-11T09:32:55;99039.38;;;27.58;27.97
26376;BME280;30544;42.196;24.336;2022-07-11T09:35:25;99052.34;;;26.88;25.40
26376;BME280;30544;42.196;24.336;2022-07-11T09:37:52;99053.47;;;27.39;26.08
26376;BME280;30544;42.196;24.336;2022-07-11T09:40:20;99066.56;;;27.28;26.97
26376;BME280;30544;42.196;24.336;2022-07-11T09:42:49;99056.25;;;26.83;27.69
26376;BME280;30544;42.196;24.336;2022-07-11T09:45:18;99045.72;;;27.24;28.31
26376;BME280;30544;42.196;24.336;2022-07-11T09:47:46;99056.41;;;26.75;28.20
26376;BME280;30544;42.196;24.336;2022-07-11T09:50:17;99064.03;;;26.98;28.20
26376;BME280;30544;42.196;24.336;2022-07-11T09:52:58;99059.09;;;27.51;27.44
26376;BME280;30544;42.196;24.336;2022-07-11T09:55:25;99070.22;;;27.28;27.82
26376;BME280;30544;42.196;24.336;2022-07-11T09:57:52;99061.97;;;27.23;27.90
26376;BME280;30544;42.196;24.336;2022-07-11T10:00:19;99070.53;;;27.67;28.23
26376;BME280;30544;42.196;24.336;2022-07-11T10:02:46;99069.59;;;27.35;27.17
26376;BME280;30544;42.196;24.336;2022-07-11T10:05:14;99064.94;;;26.62;28.53
26376;BME280;30544;42.196;24.336;2022-07-11T10:07:41;99064.53;;;27.56;28.46
26376;BME280;30544;42.196;24.336;2022-07-11T10:10:11;99069.91;;;26.65;28.48
26376;BME280;30544;42.196;24.336;2022-07-11T10:12:39;99032.47;;;26.76;28.71
26376;BME280;30544;42.196;24.336;2022-07-11T10:15:09;99061.03;;;28.07;28.06
26376;BME280;30544;42.196;24.336;2022-07-11T10:17:46;99057.91;;;28.28;28.55
26376;BME280;30544;42.196;24.336;2022-07-11T10:20:20;99056.41;;;27.43;28.46
26376;BME280;30544;42.196;24.336;2022-07-11T10:22:55;99044.66;;;28.35;28.85
26376;BME280;30544;42.196;24.336;2022-07-11T10:25:28;99059.47;;;27.94;27.83
26376;BME280;30544;42.196;24.336;2022-07-11T10:28:13;99059.13;;;27.23;28.53
26376;BME280;30544;42.196;24.336;2022-07-11T10:30:43;99057.63;;;27.02;28.46
26376;BME280;30544;42.196;24.336;2022-07-11T10:33:12;99054.41;;;27.43;27.87
26376;BME280;30544;42.196;24.336;2022-07-11T10:35:40;99065.75;;;27.27;29.17
26376;BME280;30544;42.196;24.336;2022-07-11T10:38:08;99053.75;;;26.94;29.60
26376;BME280;30544;42.196;24.336;2022-07-11T10:40:43;99050.81;;;27.90;27.97
26376;BME280;30544;42.196;24.336;2022-07-11T10:43:11;99056.81;;;27.57;28.51
26376;BME280;30544;42.196;24.336;2022-07-11T10:45:55;99039.78;;;27.73;29.04
26376;BME280;30544;42.196;24.336;2022-07-11T10:48:23;99038.31;;;27.95;28.72
26376;BME280;30544;42.196;24.336;2022-07-11T10:51:00;99037.94;;;28.12;28.81
26376;BME280;30544;42.196;24.336;2022-07-11T10:53:32;99051.28;;;28.24;28.24
26376;BME280;30544;42.196;24.336;2022-07-11T10:56:07;99063.28;;;27.85;28.70
26376;BME280;30544;42.196;24.336;2022-07-11T10:58:41;99056.97;;;28.39;27.64
26376;BME280;30544;42.196;24.336;2022-07-11T11:01:09;99056.44;;;27.58;27.72
26376;BME280;30544;42.196;24.336;2022-07-11T11:03:37;99045.66;;;27.80;29.45
26376;BME280;30544;42.196;24.336;2022-07-11T11:06:04;99050.88;;;28.57;27.08
26376;BME280;30544;42.196;24.336;2022-07-11T11:08:42;99056.97;;;28.08;28.35
26376;BME280;30544;42.196;24.336;2022-07-11T11:11:37;99045.22;;;27.94;27.14
26376;BME280;30544;42.196;24.336;2022-07-11T11:14:25;99061.72;;;26.88;27.83
26376;BME280;30544;42.196;24.336;2022-07-11T11:17:34;99053.31;;;26.80;28.46
26376;BME280;30544;42.196;24.336;2022-07-11T11:20:01;99065.56;;;27.64;27.49
26376;BME280;30544;42.196;24.336;2022-07-11T11:22:28;99060.53;;;27.73;27.87
26376;BME280;30544;42.196;24.336;2022-07-11T11:24:56;99049.97;;;27.46;28.00
26376;BME280;30544;42.196;24.336;2022-07-11T11:27:25;99045.78;;;27.55;27.38
26376;BME280;30544;42.196;24.336;2022-07-11T11:29:54;99057.78;;;27.05;28.10
26376;BME280;30544;42.196;24.336;2022-07-11T11:32:22;99051.81;;;27.10;27.64
26376;BME280;30544;42.196;24.336;2022-07-11T11:34:54;99023.78;;;27.68;27.07
26376;BME280;30544;42.196;24.336;2022-07-11T11:37:22;99060.50;;;27.57;27.95
26376;BME280;30544;42.196;24.336;2022-07-11T11:39:57;99051.13;;;27.29;27.64
26376;BME280;30544;42.196;24.336;2022-07-11T11:42:28;99044.19;;;27.14;27.72
26376;BME280;30544;42.196;24.336;2022-07-11T11:44:58;99059.88;;;27.08;27.28
26376;BME280;30544;42.196;24.336;2022-07-11T11:47:28;99063.50;;;27.21;27.67
26376;BME280;30544;42.196;24.336;2022-07-11T11:49:56;99049.84;;;27.26;27.07
26376;BME280;30544;42.196;24.336;2022-07-11T11:52:23;99047.78;;;27.39;27.16
26376;BME280;30544;42.196;24.336;2022-07-11T11:54:51;99044.69;;;27.60;26.65
26376;BME280;30544;42.196;24.336;2022-07-11T11:57:21;99068.69;;;27.31;27.81
26376;BME280;30544;42.196;24.336;2022-07-11T11:59:50;99054.66;;;26.98;26.94
26376;BME280;30544;42.196;24.336;2022-07-11T12:02:21;99028.41;;;27.45;28.00
26376;BME280;30544;42.196;24.336;2022-07-11T12:04:49;99050.63;;;27.39;27.15
26376;BME280;30544;42.196;24.336;2022-07-11T12:07:24;99065.47;;;26.92;26.80
26376;BME280;30544;42.196;24.336;2022-07-11T12:09:52;99069.72;;;27.11;27.34
26376;BME280;30544;42.196;24.336;2022-07-11T12:12:23;99074.69;;;26.49;27.72
26376;BME280;30544;42.196;24.336;2022-07-11T12:15:23;99058.22;;;27.07;26.89
26376;BME280;30544;42.196;24.336;2022-07-11T12:17:52;99045.28;;;27.10;26.98
26376;BME280;30544;42.196;24.336;2022-07-11T12:20:39;99048.03;;;26.94;27.80
26376;BME280;30544;42.196;24.336;2022-07-11T12:23:09;99047.94;;;26.90;27.78
26376;BME280;30544;42.196;24.336;2022-07-11T12:25:36;99059.91;;;26.84;27.66
26376;BME280;30544;42.196;24.336;2022-07-11T12:28:04;99060.50;;;27.02;27.54
26376;BME280;30544;42.196;24.336;2022-07-11T12:30:35;99054.22;;;26.84;27.63
26376;BME280;30544;42.196;24.336;2022-07-11T12:33:06;99050.25;;;27.41;27.29
26376;BME280;30544;42.196;24.336;2022-07-11T12:35:34;99046.28;;;28.05;26.57
26376;BME280;30544;42.196;24.336;2022-07-11T12:38:01;99040.16;;;27.43;26.04
26376;BME280;30544;42.196;24.336;2022-07-11T12:40:28;99048.16;;;27.10;27.32
26376;BME280;30544;42.196;24.336;2022-07-11T12:42:55;99046.28;;;26.89;26.91
26376;BME280;30544;42.196;24.336;2022-07-11T12:45:22;99053.56;;;27.43;26.86
26376;BME280;30544;42.196;24.336;2022-07-11T12:47:50;99049.56;;;27.60;26.25
26376;BME280;30544;42.196;24.336;2022-07-11T12:50:20;99051.50;;;27.27;26.25
26376;BME280;30544;42.196;24.336;2022-07-11T12:52:49;99053.44;;;27.23;26.42
26376;BME280;30544;42.196;24.336;2022-07-11T12:55:20;99044.91;;;27.83;25.80
26376;BME280;30544;42.196;24.336;2022-07-11T12:58:06;99038.00;;;28.47;24.42